Time;durP1;ratioP1;P1;durP2;ratioP2;P2;SDS_P1;SDS_P2;PMS_P1;PMS_P2;Temp;Humidity;BMP_temperature;BMP_pressure;BME280_temperature;BME280_humidity;BME280_pressure;Samples;Min_cycle;Max_cycle;Signal;HPM_P1;HPM_P2
2023/02/26 00:01:57;;;;;;;10.40;4.10;;;;;;;1.43;90.69;101740.84;5221754;28;20025;-72
2023/02/26 00:04:28;;;;;;;8.45;3.58;;;;;;;1.45;90.21;101743.38;5220628;28;20053;-72
2023/02/26 00:06:59;;;;;;;6.90;3.80;;;;;;;1.33;91.44;101748.94;5223423;28;20116;-72
2023/02/26 00:09:31;;;;;;;12.85;4.15;;;;;;;1.40;92.80;101750.41;5227415;28;20032;-71
2023/02/26 00:12:03;;;;;;;12.25;4.50;;;;;;;1.35;94.84;101747.16;5226917;28;20454;-71
2023/02/26 00:14:34;;;;;;;9.60;4.13;;;;;;;1.26;93.72;101758.63;5226894;28;20116;-71
2023/02/26 00:17:46;;;;;;;11.35;4.13;;;;;;;1.61;95.42;101766.97;5229033;28;20033;-72
2023/02/26 00:20:17;;;;;;;11.23;4.72;;;;;;;1.30;95.03;101759.38;5216921;28;20029;-72
2023/02/26 00:22:49;;;;;;;8.70;4.47;;;;;;;1.41;95.16;101771.03;5225044;28;20022;-72
2023/02/26 00:25:20;;;;;;;9.50;4.40;;;;;;;1.51;95.23;101766.41;5210923;28;20055;-72
2023/02/26 00:27:52;;;;;;;9.57;4.68;;;;;;;1.53;94.63;101767.22;5211650;28;20029;-72
2023/02/26 00:30:24;;;;;;;7.70;4.25;;;;;;;1.55;95.42;101770.59;5228199;28;20033;-72
2023/02/26 00:32:55;;;;;;;12.95;6.03;;;;;;;1.55;94.61;101778.31;5229785;28;20548;-72
2023/02/26 00:35:27;;;;;;;13.63;5.65;;;;;;;1.55;95.57;101778.31;5232696;28;20663;-71
2023/02/26 00:38:05;;;;;;;11.40;5.07;;;;;;;1.70;100.00;101783.03;5231356;28;20064;-72
2023/02/26 00:40:44;;;;;;;11.85;4.85;;;;;;;1.75;98.47;101789.78;5228985;28;20108;-71
2023/02/26 00:43:23;;;;;;;10.20;4.68;;;;;;;1.77;98.30;101782.81;5231918;28;20032;-72
2023/02/26 00:46:20;;;;;;;14.15;5.22;;;;;;;1.98;98.16;101786.44;5228416;28;20260;-71
2023/02/26 00:49:23;;;;;;;10.85;5.00;;;;;;;1.87;97.93;101791.94;5233661;28;20532;-71
2023/02/26 00:51:58;;;;;;;12.93;5.00;;;;;;;1.85;97.57;101802.31;5201943;28;20045;-71
2023/02/26 00:54:30;;;;;;;12.57;5.22;;;;;;;1.82;97.44;101794.69;5234012;28;20194;-71
2023/02/26 00:57:03;;;;;;;17.55;6.13;;;;;;;1.89;97.66;101801.31;5235510;28;20116;-71
2023/02/26 00:59:34;;;;;;;12.77;5.22;;;;;;;1.89;96.62;101795.31;5236348;28;20092;-71
2023/02/26 01:02:05;;;;;;;13.70;5.03;;;;;;;1.93;100.00;101799.47;5234792;28;20051;-71
2023/02/26 01:04:37;;;;;;;10.35;5.25;;;;;;;1.95;100.00;101806.28;5236998;28;20075;-71
2023/02/26 01:07:09;;;;;;;9.82;4.45;;;;;;;1.92;97.33;101808.13;5232881;28;20033;-71
2023/02/26 01:09:40;;;;;;;10.10;4.35;;;;;;;1.88;98.31;101806.56;5237005;28;20033;-71
2023/02/26 01:12:12;;;;;;;9.23;4.38;;;;;;;1.86;99.29;101800.59;5233497;28;20124;-71
2023/02/26 01:14:46;;;;;;;10.88;4.18;;;;;;;1.81;97.94;101813.66;5234574;28;20548;-71
2023/02/26 01:17:22;;;;;;;8.77;4.35;;;;;;;1.88;99.94;101815.13;5233756;28;20512;-71
2023/02/26 01:19:57;;;;;;;9.85;4.22;;;;;;;1.72;97.84;101813.97;5236313;28;20017;-71
2023/02/26 01:22:36;;;;;;;9.55;4.18;;;;;;;1.69;99.30;101809.72;5232850;28;20025;-71
2023/02/26 01:25:10;;;;;;;13.15;4.38;;;;;;;1.66;100.00;101815.00;5235248;28;20041;-71
2023/02/26 01:27:42;;;;;;;7.72;3.70;;;;;;;1.56;100.00;101820.53;5233887;28;20430;-71
2023/02/26 01:30:14;;;;;;;13.07;4.65;;;;;;;1.56;100.00;101807.59;5234327;28;20124;-72
2023/02/26 01:32:53;;;;;;;6.30;3.50;;;;;;;1.53;100.00;101798.22;5213785;28;20486;-71
2023/02/26 01:35:51;;;;;;;9.15;4.15;;;;;;;1.68;100.00;101820.97;5235174;28;20037;-71
2023/02/26 01:38:38;;;;;;;8.40;3.13;;;;;;;1.67;100.00;101811.53;5236777;28;20033;-71
2023/02/26 01:41:23;;;;;;;11.90;2.88;;;;;;;1.73;100.00;101820.81;5233258;28;20037;-71
2023/02/26 01:44:09;;;;;;;7.75;2.58;;;;;;;1.54;100.00;101825.72;5235969;28;20022;-71
2023/02/26 01:46:49;;;;;;;9.57;2.85;;;;;;;1.67;100.00;101816.69;5234504;28;20052;-71
2023/02/26 01:49:21;;;;;;;6.57;3.33;;;;;;;1.56;100.00;101826.53;5235276;28;20057;-71
2023/02/26 01:51:56;;;;;;;8.95;2.95;;;;;;;1.51;100.00;101820.63;5232429;28;20076;-71
2023/02/26 01:54:28;;;;;;;7.82;2.17;;;;;;;1.57;100.00;101832.53;5235481;28;20091;-71
2023/02/26 01:57:05;;;;;;;8.50;2.58;;;;;;;1.56;100.00;101833.44;5235187;28;20036;-71
2023/02/26 01:59:41;;;;;;;9.20;2.67;;;;;;;1.51;100.00;101827.53;5237058;28;20043;-71
2023/02/26 02:02:20;;;;;;;4.97;2.38;;;;;;;1.56;100.00;101839.44;5231720;28;20143;-71
2023/02/26 02:04:52;;;;;;;6.70;2.10;;;;;;;1.47;100.00;101839.72;5231467;28;20029;-71
2023/02/26 02:07:23;;;;;;;9.80;2.40;;;;;;;1.49;100.00;101850.00;5236353;28;20082;-71
2023/02/26 02:09:55;;;;;;;7.70;2.65;;;;;;;1.47;100.00;101844.88;5216185;28;20029;-71
2023/02/26 02:12:37;;;;;;;9.90;2.97;;;;;;;1.63;100.00;101850.41;5234306;28;20502;-70
2023/02/26 02:15:24;;;;;;;6.18;1.98;;;;;;;1.66;100.00;101855.47;5229566;28;20025;-71
2023/02/26 02:18:20;;;;;;;6.68;2.20;;;;;;;1.69;100.00;101861.38;5234219;28;20112;-71
2023/02/26 02:21:10;;;;;;;5.85;2.13;;;;;;;1.52;100.00;101862.84;5232491;28;20509;-70
2023/02/26 02:24:00;;;;;;;5.63;1.98;;;;;;;1.69;100.00;101860.56;5223723;28;20470;-70
2023/02/26 02:26:40;;;;;;;8.23;1.90;;;;;;;1.62;100.00;101869.38;5235961;28;20025;-70
2023/02/26 02:29:30;;;;;;;7.15;2.20;;;;;;;1.49;100.00;101868.94;5231351;28;20037;-70
2023/02/26 02:32:20;;;;;;;7.80;2.55;;;;;;;1.64;100.00;101858.13;5234181;28;20395;-70
2023/02/26 02:35:19;;;;;;;10.48;2.33;;;;;;;1.64;100.00;101878.78;5228532;28;20029;-71
2023/02/26 02:38:02;;;;;;;5.80;1.75;;;;;;;1.63;100.00;101879.69;5231845;28;20037;-71
2023/02/26 02:40:39;;;;;;;6.57;2.47;;;;;;;1.55;99.61;101871.31;5233541;28;20506;-70
2023/02/26 02:43:15;;;;;;;9.98;2.20;;;;;;;1.56;99.18;101883.34;5233243;28;20053;-70
2023/02/26 02:45:52;;;;;;;5.35;1.70;;;;;;;1.49;98.11;101889.59;5231441;28;20126;-71
2023/02/26 02:48:29;;;;;;;13.45;2.97;;;;;;;1.59;99.14;101887.56;5233611;28;20224;-70
2023/02/26 02:51:07;;;;;;;4.90;2.25;;;;;;;1.55;97.33;101891.13;5233405;28;20026;-71
2023/02/26 02:53:46;;;;;;;4.05;1.27;;;;;;;1.64;97.71;101886.53;5232432;28;20601;-70
2023/02/26 02:56:28;;;;;;;6.30;1.92;;;;;;;1.69;99.17;101896.72;5230758;28;20465;-70
2023/02/26 02:59:12;;;;;;;5.20;1.80;;;;;;;1.62;96.07;101905.53;5233748;28;20030;-71
2023/02/26 03:01:46;;;;;;;7.35;2.10;;;;;;;1.52;96.64;101904.16;5233887;28;20045;-71
2023/02/26 03:04:18;;;;;;;5.13;2.17;;;;;;;1.49;94.20;101909.41;5231799;28;20238;-70
2023/02/26 03:06:49;;;;;;;6.38;1.58;;;;;;;1.47;94.57;101909.44;5233285;28;20033;-70
2023/02/26 03:09:21;;;;;;;9.02;2.00;;;;;;;1.46;94.71;101903.41;5233076;28;20556;-70
2023/02/26 03:11:52;;;;;;;4.35;1.80;;;;;;;1.44;93.95;101907.81;5229774;28;20120;-70
2023/02/26 03:14:24;;;;;;;6.30;1.70;;;;;;;1.36;93.51;101906.31;5231592;28;20029;-70
2023/02/26 03:17:07;;;;;;;4.97;1.70;;;;;;;1.46;94.65;101920.66;5234365;28;20028;-70
2023/02/26 03:19:57;;;;;;;11.82;3.05;;;;;;;1.61;94.48;101915.03;5231841;28;20060;-70
2023/02/26 03:22:35;;;;;;;6.03;1.85;;;;;;;1.45;94.30;101918.97;5234085;28;20502;-70
2023/02/26 03:25:07;;;;;;;4.80;1.77;;;;;;;1.27;94.38;101930.66;5232674;28;20021;-70
2023/02/26 03:28:03;;;;;;;5.20;2.28;;;;;;;1.30;96.06;101932.34;5230628;28;20510;-70
2023/02/26 03:31:06;;;;;;;5.40;1.85;;;;;;;1.54;95.57;101934.19;5231784;28;20049;-71
2023/02/26 03:33:49;;;;;;;9.00;2.33;;;;;;;1.41;95.47;101931.13;5196493;28;20134;-70
2023/02/26 03:36:23;;;;;;;4.72;1.77;;;;;;;1.26;95.17;101939.31;5233851;28;20113;-70
2023/02/26 03:39:02;;;;;;;5.93;1.70;;;;;;;1.31;95.98;101942.59;5233172;28;20474;-71
2023/02/26 03:41:43;;;;;;;6.80;2.20;;;;;;;1.26;95.33;101934.16;5231992;28;20397;-70
2023/02/26 03:44:24;;;;;;;6.85;1.92;;;;;;;1.35;96.72;101946.78;5230057;28;20076;-70
2023/02/26 03:47:05;;;;;;;8.15;1.70;;;;;;;1.30;96.87;101947.81;5231863;28;20029;-71
2023/02/26 03:49:44;;;;;;;4.32;1.58;;;;;;;1.32;98.41;101952.03;5232406;28;20063;-70
2023/02/26 03:52:16;;;;;;;9.00;2.00;;;;;;;1.17;95.62;101958.47;5213984;28;20498;-71
2023/02/26 03:54:54;;;;;;;7.70;1.83;;;;;;;1.30;94.70;101955.56;5228671;28;20030;-71
2023/02/26 03:57:26;;;;;;;6.82;1.92;;;;;;;1.08;95.75;101952.72;5236038;28;20033;-71
2023/02/26 03:59:57;;;;;;;5.68;2.03;;;;;;;1.08;96.84;101961.31;5216374;28;20032;-70
2023/02/26 04:02:46;;;;;;;8.15;1.95;;;;;;;1.25;97.38;101962.56;5233332;28;20387;-70
2023/02/26 04:05:22;;;;;;;6.40;1.95;;;;;;;1.14;98.57;101975.81;5232510;28;20080;-71
2023/02/26 04:07:55;;;;;;;8.90;2.17;;;;;;;1.07;95.13;101972.53;5233649;28;20475;-70
2023/02/26 04:10:32;;;;;;;;;;;;;;;1.66;91.41;101976.88;5234106;28;20085;-71
2023/02/26 04:13:03;;;;;;;6.03;1.67;;;;;;;1.12;93.51;101975.81;5237143;28;19947;-70
2023/02/26 04:15:35;;;;;;;3.95;1.33;;;;;;;1.18;92.60;101978.25;5237592;28;20428;-70
2023/02/26 04:18:06;;;;;;;8.00;1.70;;;;;;;1.09;91.34;101986.22;5234760;28;20036;-69
2023/02/26 04:20:37;;;;;;;5.63;1.67;;;;;;;1.08;91.63;101979.38;5234708;28;20037;-70
2023/02/26 04:23:09;;;;;;;5.28;1.70;;;;;;;1.06;92.23;101985.47;5235493;28;20438;-70
2023/02/26 04:25:40;;;;;;;5.28;1.83;;;;;;;1.12;90.72;101990.47;5234769;28;20025;-69
2023/02/26 04:28:12;;;;;;;5.75;1.42;;;;;;;1.06;92.05;101994.06;5238757;28;20037;-69
2023/02/26 04:30:43;;;;;;;4.72;1.50;;;;;;;1.03;91.08;101999.31;5234240;28;20179;-70
2023/02/26 04:33:15;;;;;;;5.68;1.60;;;;;;;1.06;91.53;102001.81;5236898;28;20305;-70
2023/02/26 04:35:46;;;;;;;7.35;1.67;;;;;;;1.03;89.77;101999.31;5237057;28;20033;-70
2023/02/26 04:38:17;;;;;;;8.02;1.52;;;;;;;1.02;91.16;102002.75;5236755;28;20025;-70
2023/02/26 04:40:49;;;;;;;9.85;1.70;;;;;;;0.95;89.98;102009.00;5233360;28;20032;-70
2023/02/26 04:43:21;;;;;;;4.10;1.73;;;;;;;0.88;89.47;102010.03;5231807;28;20574;-69
2023/02/26 04:45:52;;;;;;;7.13;1.88;;;;;;;0.87;89.59;102008.31;5237514;28;20133;-69
2023/02/26 04:48:24;;;;;;;8.40;1.67;;;;;;;0.92;88.20;102009.91;5238032;28;20029;-69
2023/02/26 04:50:55;;;;;;;6.55;1.60;;;;;;;0.90;89.94;102016.81;5237001;28;20398;-69
2023/02/26 04:53:26;;;;;;;8.05;1.55;;;;;;;0.94;88.03;102013.28;5235731;28;20030;-69
2023/02/26 04:55:57;;;;;;;8.38;1.90;;;;;;;0.90;87.63;102016.81;5235184;28;20175;-69
2023/02/26 04:58:29;;;;;;;2.47;1.00;;;;;;;0.89;86.90;102016.88;5235094;28;20111;-69
2023/02/26 05:01:00;;;;;;;10.98;1.98;;;;;;;0.88;87.17;102023.78;5234074;28;20040;-69
2023/02/26 05:03:32;;;;;;;5.85;1.70;;;;;;;0.91;86.45;102028.88;5235557;28;20045;-69
2023/02/26 05:06:03;;;;;;;10.38;1.38;;;;;;;0.81;87.67;102034.28;5219096;28;20029;-69
2023/02/26 05:08:35;;;;;;;4.50;1.40;;;;;;;0.81;86.88;102037.72;5236202;28;20037;-69
2023/02/26 05:11:06;;;;;;;5.45;1.30;;;;;;;0.85;86.12;102041.91;5218309;28;20030;-69
2023/02/26 05:13:38;;;;;;;3.80;1.00;;;;;;;0.79;86.51;102028.31;5232320;28;20025;-69
2023/02/26 05:16:09;;;;;;;6.82;1.48;;;;;;;0.84;88.63;102040.22;5214368;28;20040;-70
2023/02/26 05:18:40;;;;;;;11.15;2.05;;;;;;;0.82;86.00;102046.28;5235729;28;20029;-69
2023/02/26 05:21:12;;;;;;;6.30;1.92;;;;;;;0.82;85.96;102046.28;5236900;28;20457;-69
2023/02/26 05:23:43;;;;;;;3.42;1.20;;;;;;;0.78;85.52;102047.25;5231794;28;20069;-69
2023/02/26 05:26:14;;;;;;;6.85;1.30;;;;;;;0.73;83.86;102053.38;5233284;28;20056;-69
2023/02/26 05:28:45;;;;;;;6.63;1.38;;;;;;;0.75;84.54;102050.75;5236833;28;20588;-69
2023/02/26 05:31:17;;;;;;;10.13;1.33;;;;;;;0.71;83.16;102055.13;5233758;28;20148;-70
2023/02/26 05:33:48;;;;;;;4.78;1.20;;;;;;;0.75;84.34;102060.22;5231550;28;20503;-72
2023/02/26 05:36:19;;;;;;;5.28;1.45;;;;;;;0.72;83.18;102064.59;5236026;28;20022;-70
2023/02/26 05:38:51;;;;;;;4.95;1.15;;;;;;;0.73;83.17;102062.84;5235704;28;20079;-70
2023/02/26 05:41:23;;;;;;;6.05;1.10;;;;;;;0.72;83.43;102069.75;5233461;28;20449;-70
2023/02/26 05:43:55;;;;;;;4.13;1.13;;;;;;;0.68;82.27;102065.53;5214994;28;20029;-71
2023/02/26 05:46:26;;;;;;;5.88;1.13;;;;;;;0.70;81.02;102071.50;5235892;28;20029;-71
2023/02/26 05:48:57;;;;;;;3.97;1.63;;;;;;;0.71;82.49;102070.59;5218005;28;20542;-71
2023/02/26 05:51:28;;;;;;;5.13;1.10;;;;;;;0.71;83.00;102068.03;5232068;28;20029;-72
2023/02/26 05:54:00;;;;;;;6.75;1.42;;;;;;;0.72;82.12;102074.91;5235093;28;20017;-71
2023/02/26 05:56:31;;;;;;;7.05;1.52;;;;;;;0.73;81.27;102073.16;5231278;28;20568;-70
2023/02/26 05:59:02;;;;;;;4.00;0.93;;;;;;;0.72;80.85;102082.63;5234852;28;20038;-71
2023/02/26 06:01:36;;;;;;;5.00;1.10;;;;;;;0.75;81.86;102080.84;5235149;28;20544;-70
2023/02/26 06:04:07;;;;;;;6.03;1.35;;;;;;;0.66;81.75;102081.94;5232051;28;20026;-71
2023/02/26 06:06:39;;;;;;;4.82;1.67;;;;;;;0.72;81.56;102089.53;5227691;28;20033;-70
2023/02/26 06:09:10;;;;;;;4.25;1.20;;;;;;;0.68;81.28;102087.88;5231563;28;20606;-71
2023/02/26 06:11:42;;;;;;;6.03;1.13;;;;;;;0.70;80.61;102099.88;5234269;28;20120;-71
2023/02/26 06:14:13;;;;;;;5.45;1.00;;;;;;;0.76;82.85;102100.59;5235712;28;20021;-71
2023/02/26 06:16:44;;;;;;;7.50;1.33;;;;;;;0.76;80.80;102100.59;5235113;28;20038;-71
2023/02/26 06:19:16;;;;;;;9.20;1.85;;;;;;;0.67;79.39;102110.25;5234731;28;20029;-71
2023/02/26 06:21:47;;;;;;;4.20;1.05;;;;;;;0.72;81.05;102112.75;5234265;28;20018;-70
2023/02/26 06:24:18;;;;;;;7.68;1.45;;;;;;;0.69;79.89;102116.25;5232199;28;20033;-71
2023/02/26 06:26:50;;;;;;;3.97;0.88;;;;;;;0.68;79.10;102121.41;5235357;28;20079;-70
2023/02/26 06:29:22;;;;;;;4.82;1.35;;;;;;;0.71;79.31;102124.78;5233180;28;20063;-70
2023/02/26 06:31:53;;;;;;;6.32;1.17;;;;;;;0.65;77.83;102127.50;5233498;28;20053;-71
2023/02/26 06:34:24;;;;;;;7.25;1.27;;;;;;;0.70;79.76;102135.97;5234954;28;20382;-70
2023/02/26 06:36:56;;;;;;;3.20;1.38;;;;;;;0.67;80.65;102141.19;5234942;28;20018;-71
2023/02/26 06:39:27;;;;;;;4.97;1.00;;;;;;;0.66;79.51;102143.81;5230677;28;20446;-70
2023/02/26 06:41:58;;;;;;;5.80;1.00;;;;;;;0.57;79.29;102152.63;5234764;28;20020;-72
2023/02/26 06:44:30;;;;;;;3.90;1.00;;;;;;;0.60;79.42;102162.00;5233881;28;20112;-71
2023/02/26 06:47:01;;;;;;;5.43;1.33;;;;;;;0.58;80.41;102149.16;5231757;28;20505;-70
2023/02/26 06:49:32;;;;;;;3.75;0.82;;;;;;;0.66;80.92;102169.63;5215655;28;20034;-71
2023/02/26 06:52:04;;;;;;;5.07;1.05;;;;;;;0.58;78.98;102161.22;5235283;28;20029;-71
2023/02/26 06:54:35;;;;;;;5.10;0.98;;;;;;;0.63;78.92;102170.53;5229895;28;20064;-71
2023/02/26 06:57:06;;;;;;;4.57;1.10;;;;;;;0.62;78.97;102183.47;5232378;28;20029;-71
2023/02/26 06:59:38;;;;;;;4.65;1.02;;;;;;;0.65;81.31;102191.16;5210233;28;20022;-72
2023/02/26 07:02:15;;;;;;;4.55;1.00;;;;;;;0.76;79.96;102196.03;5233616;28;20033;-71
2023/02/26 07:04:46;;;;;;;5.57;1.02;;;;;;;0.60;79.18;102201.53;5233384;28;20030;-71
2023/02/26 07:07:18;;;;;;;5.32;1.13;;;;;;;0.64;79.77;102203.16;5231842;28;20110;-71
2023/02/26 07:09:49;;;;;;;5.72;1.13;;;;;;;0.66;80.88;102210.88;5232394;28;20548;-71
2023/02/26 07:12:20;;;;;;;5.35;1.35;;;;;;;0.61;79.39;102212.72;5231226;28;20037;-69
2023/02/26 07:14:52;;;;;;;3.72;1.00;;;;;;;0.64;79.67;102218.63;5211224;28;20033;-71
2023/02/26 07:17:23;;;;;;;3.33;1.05;;;;;;;0.66;77.67;102219.47;5233708;28;20025;-71
2023/02/26 07:19:54;;;;;;;3.53;1.45;;;;;;;0.62;79.48;102228.16;5230347;28;20044;-71
2023/02/26 07:22:25;;;;;;;4.82;0.85;;;;;;;0.67;80.27;102234.06;5232468;28;20029;-71
2023/02/26 07:24:59;;;;;;;3.42;1.20;;;;;;;0.64;80.45;102233.25;5229689;28;20035;-71
2023/02/26 07:27:32;;;;;;;7.50;1.10;;;;;;;0.68;79.57;102238.34;5213664;28;20033;-71
2023/02/26 07:30:04;;;;;;;3.53;0.95;;;;;;;0.73;78.99;102249.41;5230966;28;20029;-70
2023/02/26 07:32:36;;;;;;;4.35;1.08;;;;;;;0.74;80.97;102245.09;5230396;28;20045;-71
2023/02/26 07:35:08;;;;;;;5.70;1.17;;;;;;;0.72;78.14;102247.72;5232469;28;20517;-70
2023/02/26 07:37:39;;;;;;;4.72;1.00;;;;;;;0.81;80.55;102250.97;5230123;28;20040;-71
2023/02/26 07:40:11;;;;;;;3.63;1.02;;;;;;;0.84;79.07;102263.81;5230952;28;20033;-71
2023/02/26 07:42:43;;;;;;;7.72;1.80;;;;;;;0.86;81.98;102265.47;5232744;28;20563;-71
2023/02/26 07:45:17;;;;;;;5.30;1.50;;;;;;;0.96;79.80;102268.72;5229883;28;20021;-71
2023/02/26 07:47:50;;;;;;;3.13;1.27;;;;;;;0.97;78.43;102278.13;5230446;28;20030;-69
2023/02/26 07:50:23;;;;;;;6.63;1.40;;;;;;;0.97;79.64;102266.06;5234362;28;20052;-71
2023/02/26 07:52:55;;;;;;;6.10;1.80;;;;;;;1.05;77.74;102281.41;5231937;28;20028;-73
2023/02/26 07:55:26;;;;;;;6.43;1.10;;;;;;;1.09;77.62;102274.44;5229745;28;20026;-72
2023/02/26 07:57:57;;;;;;;7.82;1.50;;;;;;;1.09;78.39;102277.84;5229847;28;20052;-71
2023/02/26 08:00:29;;;;;;;7.15;1.50;;;;;;;1.16;79.24;102289.75;5230829;28;20040;-71
2023/02/26 08:03:00;;;;;;;4.72;0.98;;;;;;;1.17;79.11;102286.28;5211855;28;20540;-71
2023/02/26 08:05:31;;;;;;;3.40;1.02;;;;;;;1.27;79.18;102288.66;5231638;28;20524;-71
2023/02/26 08:08:03;;;;;;;5.80;1.90;;;;;;;1.30;79.77;102296.34;5231588;28;20068;-71
2023/02/26 08:10:34;;;;;;;4.15;0.85;;;;;;;1.31;79.14;102288.56;5233027;28;20032;-71
2023/02/26 08:13:06;;;;;;;4.78;0.95;;;;;;;1.35;77.16;102297.09;5212861;28;20037;-70
2023/02/26 08:15:38;;;;;;;6.22;1.50;;;;;;;1.38;77.74;102300.44;5232346;28;20112;-69
2023/02/26 08:18:10;;;;;;;3.47;1.20;;;;;;;1.43;79.56;102297.75;5231554;28;20101;-71
2023/02/26 08:20:41;;;;;;;6.30;1.27;;;;;;;1.51;80.06;102303.56;5233181;28;20489;-72
2023/02/26 08:23:13;;;;;;;3.47;0.90;;;;;;;1.54;77.08;102293.19;5230403;28;20029;-71
2023/02/26 08:25:44;;;;;;;5.70;1.55;;;;;;;1.59;77.57;102301.69;5226475;28;20030;-71
2023/02/26 08:28:15;;;;;;;5.18;1.17;;;;;;;1.69;75.41;102300.56;5232048;28;20473;-71
2023/02/26 08:30:47;;;;;;;9.10;1.65;;;;;;;1.68;77.71;102308.34;5227747;28;20402;-71
2023/02/26 08:33:18;;;;;;;4.75;1.13;;;;;;;1.81;78.13;102312.31;5231730;28;20056;-71
2023/02/26 08:35:49;;;;;;;3.58;1.30;;;;;;;1.90;76.08;102324.19;5233035;28;20044;-71
2023/02/26 08:38:21;;;;;;;5.00;1.20;;;;;;;1.94;75.83;102318.06;5230631;28;20032;-71
2023/02/26 08:40:52;;;;;;;4.68;1.13;;;;;;;2.00;76.45;102328.22;5227294;28;20136;-72
2023/02/26 08:43:24;;;;;;;4.20;1.08;;;;;;;2.00;74.47;102328.22;5232329;28;20036;-71
2023/02/26 08:45:56;;;;;;;9.05;1.38;;;;;;;2.07;74.83;102336.69;5230147;28;20080;-71
2023/02/26 08:48:28;;;;;;;6.18;1.27;;;;;;;2.10;74.89;102331.44;5226775;28;20112;-71
2023/02/26 08:50:59;;;;;;;5.05;1.23;;;;;;;2.16;75.05;102336.47;5231776;28;20112;-71
2023/02/26 08:53:30;;;;;;;4.63;1.20;;;;;;;2.18;74.03;102345.84;5232034;28;20029;-71
2023/02/26 08:56:02;;;;;;;2.92;1.13;;;;;;;2.27;74.46;102344.75;5232810;28;20407;-71
2023/02/26 08:58:33;;;;;;;5.57;1.10;;;;;;;2.28;75.08;102354.25;5213907;28;20079;-72
2023/02/26 09:01:05;;;;;;;3.15;1.08;;;;;;;2.36;75.33;102351.44;5234004;28;20466;-71
2023/02/26 09:03:36;;;;;;;3.42;1.20;;;;;;;2.42;73.68;102359.03;5236128;28;20426;-71
2023/02/26 09:06:07;;;;;;;5.05;1.20;;;;;;;2.47;74.26;102364.09;5229276;28;20035;-70
2023/02/26 09:08:39;;;;;;;4.32;0.90;;;;;;;2.47;75.06;102364.09;5230258;28;20033;-72
2023/02/26 09:11:10;;;;;;;4.30;1.00;;;;;;;2.49;73.65;102368.31;5236384;28;20029;-71
2023/02/26 09:13:42;;;;;;;4.88;0.88;;;;;;;2.46;71.98;102365.81;5234095;28;20029;-72
2023/02/26 09:16:13;;;;;;;5.05;1.20;;;;;;;2.53;71.87;102366.50;5234664;28;20029;-70
2023/02/26 09:18:44;;;;;;;4.55;1.38;;;;;;;2.62;74.55;102371.47;5233386;28;20037;-72
2023/02/26 09:21:16;;;;;;;3.20;1.27;;;;;;;2.68;72.71;102377.28;5220888;28;20022;-70
2023/02/26 09:23:47;;;;;;;4.10;1.35;;;;;;;2.70;73.03;102374.69;5232768;28;20044;-71
2023/02/26 09:26:18;;;;;;;4.30;1.50;;;;;;;2.72;72.01;102377.22;5234192;28;20045;-72
2023/02/26 09:28:50;;;;;;;6.60;1.17;;;;;;;2.89;70.66;102386.22;5232621;28;20033;-71
2023/02/26 09:31:21;;;;;;;4.90;1.05;;;;;;;2.89;70.94;102375.88;5233600;28;20806;-71
2023/02/26 09:33:52;;;;;;;3.03;1.10;;;;;;;2.98;68.03;102381.66;5232762;28;20641;-71
2023/02/26 09:36:24;;;;;;;4.97;1.10;;;;;;;3.11;68.27;102386.47;5233611;28;20467;-72
2023/02/26 09:38:55;;;;;;;2.25;0.60;;;;;;;3.15;68.42;102388.06;5230873;28;20037;-72
2023/02/26 09:41:35;;;;;;;3.08;0.80;;;;;;;3.30;66.24;102399.72;5232172;28;20429;-72
2023/02/26 09:44:13;;;;;;;2.88;0.88;;;;;;;3.28;65.17;102405.84;5233115;28;20041;-72
2023/02/26 09:46:53;;;;;;;5.15;1.30;;;;;;;3.37;64.58;102409.03;5230290;28;20034;-69
2023/02/26 09:49:58;;;;;;;3.22;0.90;;;;;;;3.68;64.89;102408.09;5232113;28;20456;-70
2023/02/26 09:52:48;;;;;;;5.50;0.80;;;;;;;3.57;63.35;102423.13;5200578;28;20505;-72
2023/02/26 09:55:33;;;;;;;3.83;0.98;;;;;;;3.66;62.60;102415.91;5225613;28;20025;-72
2023/02/26 09:58:13;;;;;;;2.58;0.68;;;;;;;3.55;63.53;102423.16;5230131;28;20030;-72
2023/02/26 10:01:23;;;;;;;2.53;0.70;;;;;;;3.88;62.99;102426.44;5230138;28;20482;-72
2023/02/26 10:04:21;;;;;;;2.75;0.75;;;;;;;4.00;61.91;102430.41;5234269;28;20437;-72
2023/02/26 10:07:14;;;;;;;3.33;0.93;;;;;;;4.10;59.35;102431.81;5218123;28;20021;-72
2023/02/26 10:10:17;;;;;;;4.07;0.98;;;;;;;4.28;59.92;102440.75;5232133;28;20410;-73
2023/02/26 10:12:51;;;;;;;4.88;1.13;;;;;;;4.33;59.53;102438.00;5228180;28;20037;-72
2023/02/26 10:15:27;;;;;;;3.50;0.90;;;;;;;4.48;58.64;102432.28;5229102;28;20538;-73
2023/02/26 10:18:08;;;;;;;3.55;0.90;;;;;;;4.60;54.69;102441.41;5231790;28;20045;-71
2023/02/26 10:21:07;;;;;;;5.78;0.88;;;;;;;4.86;54.31;102456.09;5229278;28;20037;-73
2023/02/26 10:24:00;;;;;;;3.58;1.00;;;;;;;4.80;53.76;102444.16;5227923;28;20036;-73
2023/02/26 10:26:42;;;;;;;5.05;1.50;;;;;;;4.70;54.55;102439.31;5229728;28;20052;-71
2023/02/26 10:29:32;;;;;;;4.72;0.80;;;;;;;4.77;52.56;102440.81;5228116;28;20064;-72
2023/02/26 10:32:25;;;;;;;2.55;1.02;;;;;;;4.75;52.24;102440.03;5219558;28;20085;-72
2023/02/26 10:35:01;;;;;;;3.53;1.25;;;;;;;4.72;52.55;102446.16;5222982;28;20025;-73
2023/02/26 10:37:37;;;;;;;3.10;0.73;;;;;;;4.78;52.42;102445.13;5218811;28;20040;-73
2023/02/26 10:40:30;;;;;;;3.15;0.80;;;;;;;4.62;51.26;102439.59;5224635;28;20112;-73
2023/02/26 10:43:15;;;;;;;2.97;0.77;;;;;;;4.69;51.79;102442.84;5226158;28;20065;-73
2023/02/26 10:46:24;;;;;;;3.80;0.73;;;;;;;4.89;51.81;102453.38;5226647;28;20049;-72
2023/02/26 10:49:33;;;;;;;2.30;0.50;;;;;;;5.04;50.15;102445.06;5228040;28;20029;-73
2023/02/26 10:52:20;;;;;;;2.25;0.70;;;;;;;4.99;50.07;102449.53;5223896;28;20418;-73
2023/02/26 10:55:10;;;;;;;3.22;0.90;;;;;;;4.96;48.43;102464.38;5227717;28;20044;-73
2023/02/26 10:57:48;;;;;;;2.67;0.70;;;;;;;4.97;47.22;102460.91;5231180;28;20040;-73
2023/02/26 11:00:21;;;;;;;3.80;1.13;;;;;;;5.02;47.92;102454.63;5230262;28;20087;-73
2023/02/26 11:02:53;;;;;;;;;;;;;;;5.48;47.81;102462.50;5228590;28;20446;-73
2023/02/26 11:05:28;;;;;;;4.10;1.00;;;;;;;5.08;48.12;102458.78;5230730;28;19913;-73
2023/02/26 11:08:08;;;;;;;4.70;0.80;;;;;;;4.98;48.80;102458.25;5228605;28;20044;-70
2023/02/26 11:11:00;;;;;;;4.70;0.88;;;;;;;5.21;50.39;102464.38;5231556;28;20030;-73
2023/02/26 11:13:35;;;;;;;1.67;0.70;;;;;;;5.07;50.09;102457.06;5225536;28;20536;-73
2023/02/26 11:16:14;;;;;;;3.97;0.88;;;;;;;5.26;48.28;102468.47;5231196;28;20409;-73
2023/02/26 11:18:53;;;;;;;4.40;0.90;;;;;;;5.43;46.91;102459.22;5228110;28;20041;-72
2023/02/26 11:21:29;;;;;;;3.47;0.88;;;;;;;5.59;46.83;102455.97;5231198;28;20036;-71
2023/02/26 11:24:05;;;;;;;4.07;0.80;;;;;;;5.63;46.41;102463.69;5228564;28;20030;-73
2023/02/26 11:26:48;;;;;;;4.25;1.08;;;;;;;5.51;46.61;102457.19;5230202;28;20087;-73
2023/02/26 11:29:21;;;;;;;5.82;1.25;;;;;;;5.41;45.26;102450.63;5230572;28;20025;-72
2023/02/26 11:31:54;;;;;;;2.92;0.80;;;;;;;5.55;44.03;102453.56;5229012;28;20200;-72
2023/02/26 11:34:25;;;;;;;1.83;0.80;;;;;;;5.76;44.88;102472.72;5230327;28;20047;-73
2023/02/26 11:36:59;;;;;;;2.28;0.70;;;;;;;5.67;43.12;102466.09;5229041;28;20029;-73
2023/02/26 11:39:34;;;;;;;1.77;0.50;;;;;;;5.73;43.14;102463.28;5228977;28;20056;-72
2023/02/26 11:42:07;;;;;;;2.20;0.60;;;;;;;5.98;43.24;102451.94;5230448;28;20029;-73
2023/02/26 11:44:44;;;;;;;3.33;0.73;;;;;;;5.85;41.65;102456.75;5229963;28;20033;-73
2023/02/26 11:47:23;;;;;;;1.67;0.60;;;;;;;6.05;40.33;102448.16;5223499;28;20095;-72
2023/02/26 11:50:00;;;;;;;2.88;0.70;;;;;;;6.06;40.59;102453.34;5227189;28;20036;-73
2023/02/26 11:52:40;;;;;;;5.72;1.10;;;;;;;6.25;41.80;102449.97;5228102;28;20133;-73
2023/02/26 11:55:27;;;;;;;1.83;0.68;;;;;;;6.39;41.95;102447.66;5230815;28;20021;-73
2023/02/26 11:57:59;;;;;;;1.50;0.57;;;;;;;6.17;41.27;102444.22;5228543;28;20053;-73
2023/02/26 12:00:36;;;;;;;2.53;0.90;;;;;;;6.33;42.06;102455.72;5228445;28;20567;-73
2023/02/26 12:03:16;;;;;;;2.45;1.13;;;;;;;6.46;41.14;102456.91;5225637;28;20138;-72
2023/02/26 12:05:48;;;;;;;2.70;0.98;;;;;;;6.41;40.63;102458.84;5226024;28;20036;-73
2023/02/26 12:08:37;;;;;;;2.30;1.00;;;;;;;6.49;41.13;102453.31;5227264;28;20044;-72
2023/02/26 12:11:43;;;;;;;2.97;1.25;;;;;;;6.69;42.01;102448.13;5228992;28;20033;-73
2023/02/26 12:14:24;;;;;;;3.83;1.00;;;;;;;6.60;41.82;102439.88;5227047;28;20033;-73